createdAt,value
2019-03-06T00:00:33.710Z,100068.23
2019-03-06T00:03:05.908Z,100076.90
2019-03-06T00:05:38.440Z,100082.53
2019-03-06T00:08:11.103Z,100075.42
2019-03-06T00:10:43.579Z,100075.79
2019-03-06T00:13:15.985Z,100082.26
2019-03-06T00:15:48.902Z,100082.26
2019-03-06T00:18:21.330Z,100075.28
2019-03-06T00:20:54.419Z,100078.35
2019-03-06T00:23:26.900Z,100076.48
2019-03-06T00:26:00.357Z,100076.73
2019-03-06T00:28:32.900Z,100074.69
2019-03-06T00:31:06.335Z,100074.38
2019-03-06T00:34:05.460Z,100083.57
2019-03-06T00:36:37.873Z,100084.92
2019-03-06T00:39:11.352Z,100082.85
2019-03-06T00:41:46.370Z,100084.92
2019-03-06T00:44:18.888Z,100087.17
2019-03-06T00:46:51.927Z,100085.34
2019-03-06T00:49:24.113Z,100086.02
2019-03-06T00:51:56.922Z,100082.79
2019-03-06T00:54:29.051Z,100087.38
2019-03-06T00:57:01.513Z,100084.30
2019-03-06T00:59:33.856Z,100088.37
2019-03-06T01:02:07.105Z,100080.91
2019-03-06T01:04:39.482Z,100082.95
2019-03-06T01:07:11.879Z,100079.41
2019-03-06T01:09:44.339Z,100081.63
2019-03-06T01:12:16.727Z,100074.33
2019-03-06T01:14:47.896Z,100079.75
2019-03-06T01:17:20.125Z,100082.98
2019-03-06T01:19:52.922Z,100076.53
2019-03-06T01:22:25.895Z,100076.88
2019-03-06T01:24:58.567Z,100080.08
2019-03-06T01:27:31.349Z,100083.31
2019-03-06T01:30:04.024Z,100083.83
2019-03-06T01:32:37.006Z,100078.08
2019-03-06T01:35:34.435Z,100077.88
2019-03-06T01:38:29.327Z,100080.27
2019-03-06T01:41:06.491Z,100080.95
2019-03-06T01:43:49.827Z,100084.83
2019-03-06T01:46:22.033Z,100081.63
2019-03-06T01:48:54.327Z,100084.51
2019-03-06T01:51:26.548Z,100082.98
2019-03-06T01:53:58.878Z,100064.41
2019-03-06T01:56:30.937Z,100064.41
2019-03-06T01:59:03.101Z,100079.12
2019-03-06T02:01:35.425Z,100075.05
2019-03-06T02:04:06.948Z,100079.63
2019-03-06T02:06:39.084Z,100078.96
2019-03-06T02:09:14.332Z,100076.25
2019-03-06T02:11:46.916Z,100081.00
2019-03-06T02:14:18.910Z,100080.48
2019-03-06T02:16:50.982Z,100078.92
2019-03-06T02:19:23.331Z,100078.92
2019-03-06T02:21:55.869Z,100077.23
2019-03-06T02:24:28.017Z,100078.60
2019-03-06T02:27:00.333Z,100077.56
2019-03-06T02:29:32.858Z,100075.53
2019-03-06T02:32:04.909Z,100078.60
2019-03-06T02:34:37.913Z,100078.92
2019-03-06T02:37:10.105Z,100081.67
2019-03-06T02:39:42.885Z,100075.21
2019-03-06T02:42:14.900Z,100074.56
2019-03-06T02:44:48.135Z,100071.86
2019-03-06T02:47:20.462Z,100069.78
2019-03-06T02:49:53.054Z,100067.02
2019-03-06T02:52:25.773Z,100067.03
2019-03-06T02:54:59.403Z,100046.92
2019-03-06T02:57:31.894Z,100056.73
2019-03-06T03:00:26.333Z,100051.16
2019-03-06T03:03:08.347Z,100059.97
2019-03-06T03:05:50.031Z,100064.56
2019-03-06T03:08:22.435Z,100067.79
2019-03-06T03:10:55.102Z,100064.59
2019-03-06T03:13:28.006Z,100064.40
2019-03-06T03:16:00.904Z,100064.05
2019-03-06T03:18:33.331Z,100062.72
2019-03-06T03:21:05.889Z,100058.66
2019-03-06T03:23:38.342Z,100057.95
2019-03-06T03:26:10.931Z,100057.47
2019-03-06T03:28:43.329Z,100054.59
2019-03-06T03:31:15.892Z,100054.07
2019-03-06T03:33:48.328Z,100052.05
2019-03-06T03:36:20.886Z,100054.07
2019-03-06T03:38:53.068Z,100050.17
2019-03-06T03:41:25.544Z,100052.04
2019-03-06T03:44:00.861Z,100050.87
2019-03-06T03:46:32.907Z,100050.87
2019-03-06T03:49:04.896Z,100046.78
2019-03-06T03:51:38.360Z,100042.71
2019-03-06T03:54:11.372Z,100048.65
2019-03-06T03:56:43.865Z,100041.55
2019-03-06T03:59:16.086Z,100034.26
2019-03-06T04:01:48.882Z,100042.55
2019-03-06T04:04:20.874Z,100044.09
2019-03-06T04:06:53.090Z,100040.84
2019-03-06T04:09:25.284Z,100038.16
2019-03-06T04:11:57.906Z,100035.77
2019-03-06T04:14:29.923Z,100034.60
2019-03-06T04:17:02.116Z,100032.89
2019-03-06T04:19:34.538Z,100028.46
2019-03-06T04:22:07.052Z,100028.14
2019-03-06T04:24:39.335Z,100024.38
2019-03-06T04:27:11.901Z,100022.72
2019-03-06T04:29:44.900Z,100024.23
2019-03-06T04:32:16.896Z,100022.69
2019-03-06T04:34:48.874Z,100025.91
2019-03-06T04:37:21.040Z,100027.42
2019-03-06T04:39:53.296Z,100028.98
2019-03-06T04:42:26.344Z,100032.52
2019-03-06T04:44:59.351Z,100034.88
2019-03-06T04:47:31.908Z,100030.14
2019-03-06T04:50:04.332Z,100025.44
2019-03-06T04:52:36.939Z,100024.23
2019-03-06T04:55:09.361Z,100031.01
2019-03-06T04:57:41.904Z,100035.77
2019-03-06T05:00:15.936Z,100039.67
2019-03-06T05:02:48.528Z,100035.25
2019-03-06T05:05:20.889Z,100038.48
2019-03-06T05:07:53.369Z,100034.25
2019-03-06T05:10:25.926Z,100045.42
2019-03-06T05:12:58.003Z,100046.45
2019-03-06T05:15:30.314Z,100047.14
2019-03-06T05:18:17.855Z,100049.85
2019-03-06T05:20:50.098Z,100049.34
2019-03-06T05:23:22.858Z,100055.62
2019-03-06T05:25:55.362Z,100049.49
2019-03-06T05:28:27.964Z,100040.04
2019-03-06T05:31:00.328Z,100045.61
2019-03-06T05:33:32.951Z,100034.05
2019-03-06T05:37:37.582Z,100030.81
2019-03-06T05:40:09.828Z,100029.50
2019-03-06T05:42:41.937Z,100029.50
2019-03-06T05:45:15.792Z,100029.17
2019-03-06T05:47:48.284Z,100025.76
2019-03-06T05:50:20.667Z,100026.77
2019-03-06T05:52:52.704Z,100030.51
2019-03-06T05:55:23.890Z,100022.38
2019-03-06T05:57:56.451Z,100015.09
2019-03-06T06:00:29.777Z,100013.20
2019-03-06T06:03:00.728Z,100014.27
2019-03-06T06:05:33.356Z,100011.52
2019-03-06T06:08:05.863Z,100010.52
2019-03-06T06:10:38.872Z,100009.48
2019-03-06T06:13:11.296Z,99996.80
2019-03-06T06:15:43.834Z,99999.34
2019-03-06T06:18:16.163Z,100001.00
2019-03-06T06:20:51.524Z,100004.23
2019-03-06T06:23:42.533Z,100003.07
2019-03-06T06:26:14.886Z,100006.09
2019-03-06T06:28:46.907Z,100003.73
2019-03-06T06:31:19.339Z,99996.95
2019-03-06T06:33:51.891Z,99995.44
2019-03-06T06:36:24.320Z,99996.80
2019-03-06T06:38:56.850Z,100000.50
2019-03-06T06:41:29.853Z,99998.63
2019-03-06T06:44:01.855Z,99997.96
2019-03-06T06:46:34.079Z,99989.50
2019-03-06T06:49:06.326Z,99978.30
2019-03-06T06:53:07.877Z,99969.69
2019-03-06T06:57:10.850Z,99967.09
2019-03-06T07:00:59.120Z,99962.19
2019-03-06T07:04:53.321Z,99964.94
2019-03-06T07:07:45.719Z,99963.39
2019-03-06T07:10:38.447Z,99962.37
2019-03-06T07:13:35.479Z,99965.08
2019-03-06T07:16:25.496Z,99966.80
2019-03-06T07:19:22.494Z,99966.09
2019-03-06T07:22:16.389Z,99967.75
2019-03-06T07:25:19.669Z,99964.36
2019-03-06T07:27:59.319Z,99961.79
2019-03-06T07:30:50.285Z,99961.79
2019-03-06T07:33:47.494Z,99961.79
2019-03-06T07:36:37.416Z,99950.89
2019-03-06T07:39:36.314Z,99950.89
2019-03-06T07:42:29.784Z,99955.42
2019-03-06T07:45:52.386Z,99948.68
2019-03-06T07:48:52.487Z,99937.33
2019-03-06T07:51:46.491Z,99940.39
2019-03-06T07:54:46.484Z,99925.94
2019-03-06T07:57:26.516Z,99917.58
2019-03-06T07:59:59.333Z,99906.78
2019-03-06T08:03:22.882Z,99909.44
2019-03-06T08:05:55.090Z,99907.08
2019-03-06T08:08:27.314Z,99899.95
2019-03-06T08:10:59.409Z,99900.09
2019-03-06T08:13:44.461Z,99888.72
2019-03-06T08:16:31.315Z,99889.89
2019-03-06T08:19:20.326Z,99890.50
2019-03-06T08:22:11.326Z,99883.05
2019-03-06T08:25:01.319Z,99871.21
2019-03-06T08:27:33.975Z,99874.89
2019-03-06T08:30:07.542Z,99875.20
2019-03-06T08:32:40.029Z,99880.11
2019-03-06T08:35:12.904Z,99876.59
2019-03-06T08:37:45.444Z,99879.45
2019-03-06T08:40:17.868Z,99874.44
2019-03-06T08:42:50.010Z,99874.44
2019-03-06T08:45:24.402Z,99869.30
2019-03-06T08:48:15.096Z,99865.23
2019-03-06T08:51:00.636Z,99867.94
2019-03-06T08:53:38.332Z,99854.30
2019-03-06T08:56:16.500Z,99854.30
2019-03-06T08:59:10.563Z,99835.59
2019-03-06T09:02:04.619Z,99835.59
2019-03-06T09:04:57.774Z,99843.59
2019-03-06T09:07:47.382Z,99843.59
2019-03-06T09:10:44.464Z,99839.80
2019-03-06T09:13:25.834Z,99839.74
2019-03-06T09:16:19.488Z,99835.22
2019-03-06T09:19:19.804Z,99841.87
2019-03-06T09:21:58.288Z,99842.36
2019-03-06T09:24:46.341Z,99843.38
2019-03-06T09:27:26.318Z,99850.69
2019-03-06T09:30:15.719Z,99845.88
2019-03-06T09:32:59.616Z,99840.80
2019-03-06T09:35:50.630Z,99841.25
2019-03-06T09:38:47.439Z,99832.55
2019-03-06T09:41:35.181Z,99832.55
2019-03-06T09:44:13.320Z,99834.02
2019-03-06T09:47:03.435Z,99827.70
2019-03-06T09:49:41.439Z,99828.37
2019-03-06T09:52:35.522Z,99821.92
2019-03-06T09:55:15.459Z,99813.97
2019-03-06T09:57:58.399Z,99798.88
2019-03-06T10:00:58.511Z,99807.30
2019-03-06T10:03:49.493Z,99807.95
2019-03-06T10:06:39.450Z,99801.78
2019-03-06T10:09:33.354Z,99795.12
2019-03-06T10:12:27.468Z,99792.88
2019-03-06T10:15:17.523Z,99783.16
2019-03-06T10:17:54.463Z,99779.59
2019-03-06T10:20:26.870Z,99776.48
2019-03-06T10:22:59.592Z,99782.19
2019-03-06T10:25:32.116Z,99778.77
2019-03-06T10:28:06.534Z,99777.41
2019-03-06T10:30:38.023Z,99779.30
2019-03-06T10:33:10.324Z,99778.06
2019-03-06T10:35:42.884Z,99771.05
2019-03-06T10:38:16.822Z,99774.52
2019-03-06T10:40:49.496Z,99762.06
2019-03-06T10:43:23.660Z,99777.88
2019-03-06T10:45:55.823Z,99777.88
2019-03-06T10:48:27.912Z,99774.24
2019-03-06T10:51:00.324Z,99775.89
2019-03-06T10:53:41.045Z,99778.98
2019-03-06T11:01:08.130Z,99772.63
2019-03-06T11:03:45.295Z,99775.53
2019-03-06T11:06:18.638Z,99759.55
2019-03-06T11:08:51.493Z,99759.55
2019-03-06T11:11:24.005Z,99762.66
2019-03-06T11:14:05.764Z,99754.81
2019-03-06T11:16:33.401Z,99753.45
2019-03-06T11:19:07.657Z,99753.45
2019-03-06T11:21:39.824Z,99726.77
2019-03-06T11:24:11.912Z,99726.77
2019-03-06T11:26:44.865Z,99733.23
2019-03-06T11:29:19.311Z,99726.06
2019-03-06T11:31:51.331Z,99721.98
2019-03-06T11:34:23.991Z,99715.00
2019-03-06T11:36:56.289Z,99712.81
2019-03-06T11:39:28.890Z,99705.33
2019-03-06T11:42:01.074Z,99710.21
2019-03-06T11:44:33.913Z,99706.66
2019-03-06T11:47:06.052Z,99704.77
2019-03-06T11:49:38.876Z,99703.59
2019-03-06T11:52:10.903Z,99703.72
2019-03-06T11:54:43.345Z,99693.37
2019-03-06T11:57:16.016Z,99687.53
2019-03-06T11:59:48.588Z,99686.94
2019-03-06T12:02:21.069Z,99677.95
2019-03-06T12:04:53.850Z,99670.62
2019-03-06T12:07:26.063Z,99653.06
2019-03-06T12:09:59.075Z,99645.95
2019-03-06T12:12:32.328Z,99644.25
2019-03-06T12:15:04.860Z,99632.41
2019-03-06T12:17:37.408Z,99622.48
2019-03-06T12:20:10.338Z,99621.13
2019-03-06T12:22:43.206Z,99615.07
2019-03-06T12:25:16.085Z,99609.69
2019-03-06T12:27:49.324Z,99615.32
2019-03-06T12:30:21.918Z,99604.37
2019-03-06T12:32:53.881Z,99605.20
2019-03-06T12:35:25.887Z,99601.77
2019-03-06T12:37:58.331Z,99601.12
2019-03-06T12:40:30.821Z,99599.77
2019-03-06T12:43:03.012Z,99592.32
2019-03-06T12:45:35.482Z,99583.97
2019-03-06T12:48:09.859Z,99569.31
2019-03-06T12:50:42.475Z,99569.31
2019-03-06T12:53:14.856Z,99573.28
2019-03-06T12:55:47.360Z,99561.38
2019-03-06T12:58:19.906Z,99556.36
2019-03-06T13:00:51.999Z,99547.06
2019-03-06T13:03:33.219Z,99550.28
2019-03-06T13:06:07.935Z,99540.56
2019-03-06T13:08:49.875Z,99532.48
2019-03-06T13:11:26.927Z,99520.52
2019-03-06T13:14:04.313Z,99507.45
2019-03-06T13:16:41.194Z,99503.80
2019-03-06T13:19:25.076Z,99492.80
2019-03-06T13:22:10.742Z,99488.22
2019-03-06T13:24:41.553Z,99476.72
2019-03-06T13:27:17.576Z,99455.81
2019-03-06T13:29:57.952Z,99437.37
2019-03-06T13:32:49.215Z,99437.37
2019-03-06T13:35:30.492Z,99439.39
2019-03-06T13:38:12.050Z,99436.37
2019-03-06T13:40:48.924Z,99436.37
2019-03-06T13:43:25.727Z,99419.44
2019-03-06T13:46:06.954Z,99417.25
2019-03-06T13:48:52.265Z,99413.36
2019-03-06T13:51:51.273Z,99408.44
2019-03-06T13:54:30.800Z,99402.05
2019-03-06T13:57:18.815Z,99396.92
2019-03-06T14:00:00.501Z,99388.98
2019-03-06T14:02:45.870Z,99391.48
2019-03-06T14:05:26.711Z,99381.66
2019-03-06T14:08:07.146Z,99375.60
2019-03-06T14:10:49.652Z,99370.47
2019-03-06T14:13:27.028Z,99358.22
2019-03-06T14:16:08.829Z,99349.31
2019-03-06T14:18:53.403Z,99345.45
2019-03-06T14:21:32.224Z,99339.19
2019-03-06T14:24:14.855Z,99342.31
2019-03-06T14:27:04.633Z,99328.30
2019-03-06T14:29:48.554Z,99323.48
2019-03-06T14:32:34.840Z,99322.22
2019-03-06T14:35:17.842Z,99322.22
2019-03-06T14:37:53.133Z,99332.40
2019-03-06T14:40:39.270Z,99329.84
2019-03-06T14:43:23.487Z,99329.84
2019-03-06T14:46:06.904Z,99320.34
2019-03-06T14:48:50.408Z,99318.55
2019-03-06T14:51:29.911Z,99318.55
2019-03-06T14:54:15.650Z,99307.14
2019-03-06T14:56:54.338Z,99313.33
2019-03-06T14:59:28.367Z,99304.64
2019-03-06T15:02:08.649Z,99301.50
2019-03-06T15:04:44.692Z,99294.70
2019-03-06T15:07:27.479Z,99289.28
2019-03-06T15:09:59.868Z,99265.77
2019-03-06T15:12:33.025Z,99265.77
2019-03-06T15:15:05.856Z,99272.00
2019-03-06T15:17:38.361Z,99263.91
2019-03-06T15:20:17.849Z,99260.31
2019-03-06T15:22:51.039Z,99257.66
2019-03-06T15:25:24.301Z,99255.23
2019-03-06T15:27:56.875Z,99233.70
2019-03-06T15:30:29.333Z,99228.23
2019-03-06T15:33:01.880Z,99216.70
2019-03-06T15:35:34.317Z,99218.00
2019-03-06T15:38:10.351Z,99218.86
2019-03-06T15:40:42.964Z,99225.70
2019-03-06T15:43:19.707Z,99219.86
2019-03-06T15:45:50.714Z,99217.87
2019-03-06T15:48:23.310Z,99219.05
2019-03-06T15:50:55.858Z,99210.77
2019-03-06T15:53:28.094Z,99212.34
2019-03-06T15:56:00.875Z,99205.86
2019-03-06T15:58:33.486Z,99205.97
2019-03-06T16:01:05.887Z,99178.16
2019-03-06T16:03:38.106Z,99178.16
2019-03-06T16:06:19.925Z,99191.97
2019-03-06T16:08:44.870Z,99188.23
2019-03-06T16:11:19.701Z,99188.23
2019-03-06T16:13:51.861Z,99182.93
2019-03-06T16:16:24.323Z,99182.93
2019-03-06T16:18:56.902Z,99181.14
2019-03-06T16:21:29.059Z,99188.69
2019-03-06T16:24:01.564Z,99183.34
2019-03-06T16:26:34.328Z,99181.39
2019-03-06T16:29:07.090Z,99172.59
2019-03-06T16:31:39.884Z,99172.59
2019-03-06T16:34:12.327Z,99172.20
2019-03-06T16:36:44.871Z,99173.56
2019-03-06T16:39:17.657Z,99169.38
2019-03-06T16:41:48.779Z,99161.45
2019-03-06T16:44:20.999Z,99156.77
2019-03-06T16:46:53.339Z,99156.47
2019-03-06T16:49:26.414Z,99153.84
2019-03-06T16:51:58.860Z,99138.38
2019-03-06T16:54:31.006Z,99138.38
2019-03-06T16:57:03.929Z,99141.63
2019-03-06T16:59:36.319Z,99141.00
2019-03-06T17:02:09.290Z,99130.78
2019-03-06T17:04:41.862Z,99131.70
2019-03-06T17:07:14.540Z,99126.17
2019-03-06T17:09:46.871Z,99126.61
2019-03-06T17:12:19.389Z,99126.61
2019-03-06T17:14:52.144Z,99101.72
2019-03-06T17:17:24.803Z,99101.72
2019-03-06T17:19:57.481Z,99105.09
2019-03-06T17:22:29.826Z,99108.97
2019-03-06T17:25:01.935Z,99097.12
2019-03-06T17:27:34.999Z,99098.28
2019-03-06T17:30:10.128Z,99096.53
2019-03-06T17:32:59.325Z,99089.02
2019-03-06T17:35:32.876Z,99086.40
2019-03-06T17:38:05.489Z,99086.63
2019-03-06T17:40:37.977Z,99079.75
2019-03-06T17:43:10.496Z,99079.75
2019-03-06T17:45:43.331Z,99074.25
2019-03-06T17:48:15.854Z,99074.25
2019-03-06T17:50:48.064Z,99066.30
2019-03-06T17:53:21.110Z,99061.92
2019-03-06T17:55:53.956Z,99068.63
2019-03-06T17:58:26.339Z,99066.74
2019-03-06T18:01:07.459Z,99066.44
2019-03-06T18:03:51.627Z,99058.82
2019-03-06T18:06:24.314Z,99062.84
2019-03-06T18:08:56.973Z,99050.61
2019-03-06T18:11:29.464Z,99058.77
2019-03-06T18:14:01.865Z,99054.48
2019-03-06T18:16:34.090Z,99055.78
2019-03-06T18:19:06.880Z,99057.07
2019-03-06T18:21:39.323Z,99051.76
2019-03-06T18:24:11.776Z,99050.89
2019-03-06T18:26:44.332Z,99043.47
2019-03-06T18:29:17.089Z,99039.87
2019-03-06T18:31:49.888Z,99039.87
2019-03-06T18:34:21.865Z,99037.77
2019-03-06T18:36:53.960Z,99040.97
2019-03-06T18:39:26.311Z,99040.92
2019-03-06T18:41:59.588Z,99036.82
2019-03-06T18:44:30.734Z,99035.02
2019-03-06T18:47:02.962Z,99033.13
2019-03-06T18:49:35.957Z,99036.08
2019-03-06T18:52:08.443Z,99028.91
2019-03-06T18:54:40.866Z,99029.89
2019-03-06T18:57:13.454Z,99025.48
2019-03-06T18:59:45.840Z,99023.28
2019-03-06T19:02:18.063Z,99023.28
2019-03-06T19:04:50.856Z,99017.43
2019-03-06T19:07:23.164Z,99009.30
2019-03-06T19:09:55.843Z,99011.75
2019-03-06T19:12:28.641Z,99011.14
2019-03-06T19:15:00.375Z,99004.89
2019-03-06T19:17:33.941Z,98994.91
2019-03-06T19:20:06.064Z,98994.91
2019-03-06T19:27:56.784Z,98981.80
2019-03-06T19:32:27.813Z,98976.05
2019-03-06T19:34:59.934Z,98975.05
2019-03-06T19:37:32.252Z,98969.51
2019-03-06T19:40:05.382Z,98963.20
2019-03-06T19:42:37.824Z,98963.54
2019-03-06T19:45:11.800Z,98966.41
2019-03-06T19:47:43.990Z,98960.09
2019-03-06T19:50:20.337Z,98958.40
2019-03-06T19:52:52.800Z,98959.27
2019-03-06T19:55:25.753Z,98950.97
2019-03-06T19:58:01.662Z,98951.80
2019-03-06T20:00:33.842Z,98946.26
2019-03-06T20:03:07.501Z,98946.16
2019-03-06T20:05:41.225Z,98940.86
2019-03-06T20:08:15.501Z,98943.24
2019-03-06T20:10:47.891Z,98939.50
2019-03-06T20:13:20.739Z,98936.80
2019-03-06T20:15:52.994Z,98937.31
2019-03-06T20:18:25.798Z,98936.78
2019-03-06T20:20:58.482Z,98939.27
2019-03-06T20:23:31.581Z,98935.33
2019-03-06T20:26:02.866Z,98930.53
2019-03-06T20:28:35.193Z,98928.24
2019-03-06T20:31:07.769Z,98924.70
2019-03-06T20:33:39.810Z,98931.70
2019-03-06T20:36:13.313Z,98934.08
2019-03-06T20:38:45.904Z,98933.68
2019-03-06T20:41:19.357Z,98931.50
2019-03-06T20:43:52.473Z,98931.70
2019-03-06T20:46:27.837Z,98922.32
2019-03-06T20:49:00.331Z,98922.32
2019-03-06T20:51:32.871Z,98931.00
2019-03-06T20:54:05.485Z,98936.83
2019-03-06T20:56:37.899Z,98921.30
2019-03-06T20:59:09.998Z,98921.30
2019-03-06T21:01:42.340Z,98915.03
2019-03-06T21:04:15.041Z,98917.52
2019-03-06T21:06:47.834Z,98902.27
2019-03-06T21:09:19.914Z,98919.41
2019-03-06T21:11:53.018Z,98936.94
2019-03-06T21:14:25.855Z,98942.07
2019-03-06T21:16:59.308Z,98901.50
2019-03-06T21:19:31.960Z,98899.75
2019-03-06T21:22:04.851Z,98902.47
2019-03-06T21:24:37.028Z,98890.20
2019-03-06T21:27:10.508Z,98892.72
2019-03-06T21:29:42.887Z,98888.25
2019-03-06T21:32:15.338Z,98888.25
2019-03-06T21:34:48.344Z,98889.17
2019-03-06T21:37:20.905Z,98889.70
2019-03-06T21:39:53.303Z,98889.31
2019-03-06T21:42:25.885Z,98889.08
2019-03-06T21:44:58.917Z,98889.50
2019-03-06T21:47:31.840Z,98886.55
2019-03-06T21:50:04.098Z,98882.71
2019-03-06T21:59:36.101Z,98875.48
2019-03-06T22:02:08.873Z,98875.98
2019-03-06T22:04:41.876Z,98874.13
2019-03-06T22:07:14.487Z,98865.25
2019-03-06T22:09:46.879Z,98857.63
2019-03-06T22:12:19.118Z,98850.73
2019-03-06T22:14:51.879Z,98845.39
2019-03-06T22:17:24.101Z,98836.52
2019-03-06T22:19:56.909Z,98839.53
2019-03-06T22:22:29.100Z,98824.58
2019-03-06T22:25:01.435Z,98823.56
2019-03-06T22:27:34.321Z,98821.95
2019-03-06T22:30:07.499Z,98828.02
2019-03-06T22:32:39.907Z,98811.05
2019-03-06T22:35:12.075Z,98811.05
2019-03-06T22:37:46.524Z,98830.75
2019-03-06T22:40:19.337Z,98823.33
2019-03-06T22:42:52.330Z,98821.13
2019-03-06T22:45:24.875Z,98813.47
2019-03-06T22:47:56.866Z,98814.42
2019-03-06T22:50:28.975Z,98807.65
2019-03-06T22:53:01.096Z,98809.92
2019-03-06T22:55:33.480Z,98808.08
2019-03-06T22:58:05.910Z,98800.90
2019-03-06T23:01:01.353Z,98800.90
2019-03-06T23:03:34.901Z,98800.99
2019-03-06T23:06:07.110Z,98793.30
2019-03-06T23:08:43.041Z,98794.75
2019-03-06T23:11:15.462Z,98798.13
2019-03-06T23:13:47.889Z,98797.84
2019-03-06T23:16:20.379Z,98792.08
2019-03-06T23:18:53.049Z,98791.34
2019-03-06T23:21:25.910Z,98784.45
2019-03-06T23:23:59.496Z,98781.53
2019-03-06T23:26:32.037Z,98783.09
2019-03-06T23:29:04.882Z,98781.02
2019-03-06T23:31:37.483Z,98777.71
2019-03-06T23:34:10.252Z,98760.17
2019-03-06T23:36:43.479Z,98760.17
2019-03-06T23:39:15.895Z,98766.13
2019-03-06T23:41:48.003Z,98766.13
2019-03-06T23:44:20.709Z,98764.72
2019-03-06T23:46:52.996Z,98758.36
2019-03-06T23:49:26.941Z,98765.16
2019-03-06T23:52:05.363Z,98755.88
2019-03-06T23:54:38.407Z,98750.30
2019-03-06T23:57:11.421Z,98759.42
2019-03-06T23:59:43.889Z,98766.13
